Time;durP1;ratioP1;P1;durP2;ratioP2;P2;SDS_P1;SDS_P2;PMS_P1;PMS_P2;Temp;Humidity;BMP_temperature;BMP_pressure;BME280_temperature;BME280_humidity;BME280_pressure;Samples;Min_cycle;Max_cycle;Signal;HPM_P1;HPM_P2
2022/09/22 00:00:59;;;;;;;;;;;17.00;95.90;;;;;;5059966;28;19916;-69
2022/09/22 00:03:25;;;;;;;;;;;17.00;95.90;;;;;;5058302;28;19912;-69
2022/09/22 00:05:57;;;;;;;;;;;17.00;95.90;;;;;;5056011;28;20254;-69
2022/09/22 00:08:22;;;;;;;;;;;17.00;95.90;;;;;;5056007;28;20018;-69
2022/09/22 00:10:57;;;;;;;;;;;17.00;95.80;;;;;;5057631;28;20313;-69
2022/09/22 00:13:22;;;;;;;;;;;17.00;95.80;;;;;;5058582;28;19912;-69
2022/09/22 00:15:48;;;;;;;;;;;17.00;95.80;;;;;;5057647;28;19920;-69
2022/09/22 00:18:14;;;;;;;;;;;16.90;95.80;;;;;;5058443;28;19965;-69
2022/09/22 00:20:39;;;;;;;;;;;16.90;95.80;;;;;;5058978;28;20296;-69
2022/09/22 00:23:05;;;;;;;;;;;16.90;95.80;;;;;;5059265;28;20358;-69
2022/09/22 00:25:31;;;;;;;;;;;16.90;95.80;;;;;;5058910;28;20334;-69
2022/09/22 00:27:56;;;;;;;;;;;16.90;95.80;;;;;;5058503;28;20406;-70
2022/09/22 00:30:23;;;;;;;;;;;16.90;95.80;;;;;;5056475;28;19908;-69
2022/09/22 00:32:48;;;;;;;;;;;16.90;95.80;;;;;;5057234;28;20171;-69
2022/09/22 00:35:14;;;;;;;;;;;16.90;95.70;;;;;;5058758;28;19908;-69
2022/09/22 00:37:39;;;;;;;;;;;16.80;95.80;;;;;;5058046;28;19909;-69
2022/09/22 00:40:05;;;;;;;;;;;16.80;95.80;;;;;;5057246;28;19909;-69
2022/09/22 00:42:31;;;;;;;;;;;16.80;95.70;;;;;;5056949;28;19923;-69
2022/09/22 00:44:56;;;;;;;;;;;16.80;95.80;;;;;;5056093;28;20049;-69
2022/09/22 00:47:31;;;;;;;;;;;16.80;95.70;;;;;;5056372;28;19908;-72
2022/09/22 00:50:00;;;;;;;;;;;16.80;95.70;;;;;;5056239;28;19932;-68
2022/09/22 00:52:36;;;;;;;;;;;16.80;95.70;;;;;;5066538;28;19920;-69
2022/09/22 00:55:04;;;;;;;;;;;16.80;95.70;;;;;;5059031;28;19924;-69
2022/09/22 00:57:31;;;;;;;;;;;16.80;95.70;;;;;;5058751;28;19916;-69
2022/09/22 00:59:58;;;;;;;;;;;16.80;95.70;;;;;;5057625;28;19909;-69
2022/09/22 01:02:24;;;;;;;;;;;16.80;95.70;;;;;;5056881;28;19920;-69
2022/09/22 01:04:50;;;;;;;;;;;16.70;95.70;;;;;;5054274;28;19916;-69
2022/09/22 01:07:17;;;;;;;;;;;16.70;95.70;;;;;;5054251;28;19920;-69
2022/09/22 01:09:43;;;;;;;;;;;16.70;95.60;;;;;;5072412;28;19913;-69
2022/09/22 01:12:08;;;;;;;;;;;16.70;95.70;;;;;;5055230;28;20155;-69
2022/09/22 01:15:00;;;;;;;;;;;16.70;95.60;;;;;;5054651;28;19905;-69
2022/09/22 01:17:29;;;;;;;;;;;16.70;95.60;;;;;;5055715;28;19919;-69
2022/09/22 01:19:54;;;;;;;;;;;16.70;95.50;;;;;;5054862;28;19916;-69
2022/09/22 01:22:39;;;;;;;;;;;16.70;95.50;;;;;;5056000;28;19912;-69
2022/09/22 01:25:11;;;;;;;;;;;16.70;95.50;;;;;;5054506;28;19919;-69
2022/09/22 01:27:36;;;;;;;;;;;16.70;95.50;;;;;;5055363;28;19916;-69
2022/09/22 01:30:05;;;;;;;;;;;16.70;95.50;;;;;;5055944;28;19909;-69
2022/09/22 01:32:32;;;;;;;;;;;16.70;95.50;;;;;;5055777;28;19920;-69
2022/09/22 01:35:15;;;;;;;;;;;16.70;95.50;;;;;;5057956;28;19920;-69
2022/09/22 01:37:41;;;;;;;;;;;16.60;95.40;;;;;;5057711;28;19999;-69
2022/09/22 01:40:11;;;;;;;;;;;16.60;95.40;;;;;;5057952;28;20002;-69
2022/09/22 01:42:43;;;;;;;;;;;16.60;95.40;;;;;;5058049;28;19922;-69
2022/09/22 01:45:10;;;;;;;;;;;16.60;95.40;;;;;;5057534;28;19912;-69
2022/09/22 01:47:42;;;;;;;;;;;16.60;95.40;;;;;;5055976;28;19909;-69
2022/09/22 01:50:20;;;;;;;;;;;16.60;95.40;;;;;;5056139;28;20226;-69
2022/09/22 01:52:46;;;;;;;;;;;16.60;95.30;;;;;;5053992;28;19909;-69
2022/09/22 01:55:18;;;;;;;;;;;16.60;95.40;;;;;;5056199;28;19909;-69
2022/09/22 01:58:04;;;;;;;;;;;16.60;95.30;;;;;;5057575;28;19912;-70
2022/09/22 02:00:31;;;;;;;;;;;16.60;95.30;;;;;;5057681;28;19917;-69
2022/09/22 02:03:06;;;;;;;;;;;16.60;95.30;;;;;;5056347;28;19912;-69
2022/09/22 02:05:32;;;;;;;;;;;16.60;95.30;;;;;;5056261;28;19916;-69
2022/09/22 02:07:59;;;;;;;;;;;16.60;95.30;;;;;;5055757;28;20253;-69
2022/09/22 02:10:31;;;;;;;;;;;16.60;95.30;;;;;;5055659;28;20221;-69
2022/09/22 02:12:56;;;;;;;;;;;16.50;95.20;;;;;;5057438;28;19908;-69
2022/09/22 02:16:22;;;;;;;;;;;16.50;95.20;;;;;;5057784;28;19915;-69
2022/09/22 02:18:19;;;;;;;;;;;16.50;95.20;;;;;;5057882;28;19940;-69
2022/09/22 02:20:45;;;;;;;;;;;16.50;95.20;;;;;;5057854;28;20293;-69
2022/09/22 02:23:10;;;;;;;;;;;16.50;95.20;;;;;;5056165;28;19920;-69
2022/09/22 02:25:37;;;;;;;;;;;16.50;95.20;;;;;;5055974;28;19918;-69
2022/09/22 02:28:03;;;;;;;;;;;16.50;95.20;;;;;;5055604;28;20186;-69
2022/09/22 02:30:30;;;;;;;;;;;16.50;95.20;;;;;;5054855;28;19909;-69
2022/09/22 02:32:56;;;;;;;;;;;16.50;95.20;;;;;;5058317;28;19982;-69
2022/09/22 02:35:24;;;;;;;;;;;16.50;95.20;;;;;;5059538;28;19912;-68
2022/09/22 02:37:53;;;;;;;;;;;16.50;95.20;;;;;;5059092;28;19909;-68
2022/09/22 02:40:22;;;;;;;;;;;16.50;95.20;;;;;;5059257;28;20348;-69
2022/09/22 02:43:08;;;;;;;;;;;16.50;95.10;;;;;;5060462;28;22040;-69
2022/09/22 02:45:51;;;;;;;;;;;16.50;95.10;;;;;;5061125;28;20143;-69
2022/09/22 02:48:20;;;;;;;;;;;16.40;95.10;;;;;;5060793;28;20030;-69
2022/09/22 02:50:45;;;;;;;;;;;16.40;95.10;;;;;;5061238;28;19908;-69
2022/09/22 02:53:12;;;;;;;;;;;16.40;95.10;;;;;;5060105;28;19912;-69
2022/09/22 02:55:38;;;;;;;;;;;16.50;95.10;;;;;;5061408;28;19908;-69
2022/09/22 02:58:03;;;;;;;;;;;16.40;95.00;;;;;;5061484;28;19912;-69
2022/09/22 03:00:31;;;;;;;;;;;16.40;95.00;;;;;;5061140;28;19909;-69
2022/09/22 03:02:56;;;;;;;;;;;16.40;95.00;;;;;;5061270;28;19919;-69
2022/09/22 03:05:22;;;;;;;;;;;16.40;94.90;;;;;;5060512;28;19909;-69
2022/09/22 03:07:47;;;;;;;;;;;16.40;94.90;;;;;;5059970;28;19994;-69
2022/09/22 03:10:13;;;;;;;;;;;16.40;94.90;;;;;;5059309;28;19956;-69
2022/09/22 03:12:42;;;;;;;;;;;16.40;94.90;;;;;;5059809;28;19940;-69
2022/09/22 03:15:12;;;;;;;;;;;16.40;94.90;;;;;;5058981;28;20057;-69
2022/09/22 03:17:38;;;;;;;;;;;16.40;94.90;;;;;;5059066;28;19908;-69
2022/09/22 03:20:04;;;;;;;;;;;16.40;94.90;;;;;;5059039;28;19913;-69
2022/09/22 03:22:30;;;;;;;;;;;16.30;94.90;;;;;;5058530;28;19912;-69
2022/09/22 03:24:55;;;;;;;;;;;16.30;94.80;;;;;;5059015;28;20152;-69
2022/09/22 03:27:21;;;;;;;;;;;16.30;94.80;;;;;;5058618;28;19919;-69
2022/09/22 03:29:46;;;;;;;;;;;16.30;94.80;;;;;;5058452;28;19913;-67
2022/09/22 03:32:12;;;;;;;;;;;16.30;94.90;;;;;;5058092;28;20187;-69
2022/09/22 03:34:38;;;;;;;;;;;16.30;94.90;;;;;;5058896;28;20266;-69
2022/09/22 03:37:03;;;;;;;;;;;16.40;94.90;;;;;;5059729;28;19913;-69
2022/09/22 03:39:29;;;;;;;;;;;16.40;94.60;;;;;;5060080;28;19913;-69
2022/09/22 03:41:55;;;;;;;;;;;16.60;94.40;;;;;;5058507;28;19908;-69
2022/09/22 03:44:20;;;;;;;;;;;16.60;94.00;;;;;;5058800;28;19916;-69
2022/09/22 03:46:46;;;;;;;;;;;16.80;93.50;;;;;;5056980;28;20066;-69
2022/09/22 03:49:11;;;;;;;;;;;17.00;92.80;;;;;;5057431;28;19923;-69
2022/09/22 03:51:37;;;;;;;;;;;17.20;92.10;;;;;;5057588;28;19917;-69
2022/09/22 03:54:03;;;;;;;;;;;17.30;91.70;;;;;;5058041;28;19974;-68
2022/09/22 03:56:28;;;;;;;;;;;17.40;91.40;;;;;;5056540;28;19936;-69
2022/09/22 03:58:54;;;;;;;;;;;17.40;91.20;;;;;;5056183;28;19966;-69
2022/09/22 04:01:20;;;;;;;;;;;17.40;91.10;;;;;;5053817;28;20120;-69
2022/09/22 04:03:45;;;;;;;;;;;17.40;91.00;;;;;;5056266;28;20302;-69
2022/09/22 04:06:11;;;;;;;;;;;17.40;90.90;;;;;;5055999;28;19920;-69
2022/09/22 04:08:37;;;;;;;;;;;17.40;91.00;;;;;;5057113;28;19915;-69
2022/09/22 04:11:03;;;;;;;;;;;17.30;91.00;;;;;;5055882;28;19927;-69
2022/09/22 04:13:29;;;;;;;;;;;17.30;91.00;;;;;;5056206;28;19909;-68
2022/09/22 04:15:54;;;;;;;;;;;17.20;91.10;;;;;;5055185;28;19961;-69
2022/09/22 04:18:20;;;;;;;;;;;17.20;91.20;;;;;;5056566;28;19908;-69
2022/09/22 04:20:46;;;;;;;;;;;17.20;91.30;;;;;;5055781;28;20290;-69
2022/09/22 04:23:13;;;;;;;;;;;17.10;91.50;;;;;;5056417;28;19923;-69
2022/09/22 04:25:39;;;;;;;;;;;17.10;91.60;;;;;;5054342;28;19909;-69
2022/09/22 04:28:05;;;;;;;;;;;17.00;91.70;;;;;;5055622;28;19908;-69
2022/09/22 04:30:31;;;;;;;;;;;17.00;91.80;;;;;;5054111;28;19909;-69
2022/09/22 04:32:58;;;;;;;;;;;16.90;91.90;;;;;;5055283;28;19916;-69
2022/09/22 04:35:25;;;;;;;;;;;16.90;92.00;;;;;;5056453;28;19923;-69
2022/09/22 04:37:51;;;;;;;;;;;16.80;92.10;;;;;;5056684;28;19932;-69
2022/09/22 04:40:17;;;;;;;;;;;16.80;92.20;;;;;;5054775;28;19919;-69
2022/09/22 04:42:43;;;;;;;;;;;16.70;92.30;;;;;;5054737;28;19913;-69
2022/09/22 04:45:09;;;;;;;;;;;16.70;92.60;;;;;;5054932;28;19909;-69
2022/09/22 04:47:35;;;;;;;;;;;16.70;92.50;;;;;;5053306;28;19909;-69
2022/09/22 04:50:00;;;;;;;;;;;16.60;92.50;;;;;;5054850;28;19944;-69
2022/09/22 04:52:26;;;;;;;;;;;16.60;92.60;;;;;;5052910;28;19908;-69
2022/09/22 04:54:52;;;;;;;;;;;16.60;92.70;;;;;;5052683;28;20344;-69
2022/09/22 04:57:17;;;;;;;;;;;16.60;92.70;;;;;;5052909;28;20266;-69
2022/09/22 04:59:43;;;;;;;;;;;16.50;92.80;;;;;;5054293;28;19931;-69
2022/09/22 05:02:08;;;;;;;;;;;16.50;92.80;;;;;;5054272;28;19958;-69
2022/09/22 05:04:34;;;;;;;;;;;16.50;92.90;;;;;;5054393;28;19908;-69
2022/09/22 05:06:59;;;;;;;;;;;16.50;93.00;;;;;;5054497;28;20217;-69
2022/09/22 05:09:25;;;;;;;;;;;16.40;93.00;;;;;;5054552;28;19951;-69
2022/09/22 05:11:51;;;;;;;;;;;16.40;93.00;;;;;;5052888;28;20252;-69
2022/09/22 05:14:16;;;;;;;;;;;16.40;93.10;;;;;;5051537;28;19912;-69
2022/09/22 05:16:42;;;;;;;;;;;16.40;93.10;;;;;;5049870;28;20262;-69
2022/09/22 05:19:08;;;;;;;;;;;16.40;93.20;;;;;;5050203;28;20203;-69
2022/09/22 05:21:34;;;;;;;;;;;16.40;93.20;;;;;;5049165;28;19913;-69
2022/09/22 05:24:00;;;;;;;;;;;16.40;93.20;;;;;;5047836;28;19920;-68
2022/09/22 05:26:25;;;;;;;;;;;16.40;93.20;;;;;;5048250;28;19915;-69
2022/09/22 05:28:51;;;;;;;;;;;16.40;93.10;;;;;;5050099;28;19908;-69
2022/09/22 05:31:17;;;;;;;;;;;16.50;93.10;;;;;;5048004;28;19909;-70
2022/09/22 05:33:43;;;;;;;;;;;16.60;93.00;;;;;;5065798;28;19923;-69
2022/09/22 05:36:08;;;;;;;;;;;16.60;92.80;;;;;;5047348;28;19913;-70
2022/09/22 05:38:34;;;;;;;;;;;16.70;92.60;;;;;;5049208;28;19912;-69
2022/09/22 05:41:00;;;;;;;;;;;16.70;92.30;;;;;;5049462;28;20119;-69
2022/09/22 05:43:26;;;;;;;;;;;16.80;92.10;;;;;;5049737;28;19927;-69
2022/09/22 05:45:51;;;;;;;;;;;16.90;91.90;;;;;;5050721;28;19908;-69
2022/09/22 05:48:17;;;;;;;;;;;16.90;91.70;;;;;;5049828;28;19909;-69
2022/09/22 05:50:44;;;;;;;;;;;16.90;91.50;;;;;;5049235;28;20186;-69
2022/09/22 05:53:09;;;;;;;;;;;17.00;91.40;;;;;;5049027;28;20316;-69
2022/09/22 05:55:36;;;;;;;;;;;17.00;91.30;;;;;;5048748;28;20135;-69
2022/09/22 05:58:02;;;;;;;;;;;17.00;91.30;;;;;;5051880;28;19908;-70
2022/09/22 06:00:28;;;;;;;;;;;17.00;91.30;;;;;;5070139;28;19912;-69
2022/09/22 06:02:56;;;;;;;;;;;17.30;91.00;;;;;;5049733;28;19920;-69
2022/09/22 06:05:21;;;;;;;;;;;17.80;88.50;;;;;;5049456;28;19909;-69
2022/09/22 06:07:54;;;;;;;;;;;18.30;85.00;;;;;;5051970;28;20377;-69
2022/09/22 06:10:19;;;;;;;;;;;18.80;81.10;;;;;;5052083;28;19919;-69
2022/09/22 06:12:45;;;;;;;;;;;19.30;77.30;;;;;;5050984;28;19908;-69
2022/09/22 06:15:10;;;;;;;;;;;19.70;74.00;;;;;;5051912;28;19915;-69
2022/09/22 06:17:36;;;;;;;;;;;20.00;71.40;;;;;;5051536;28;20368;-69
2022/09/22 06:20:02;;;;;;;;;;;20.30;69.00;;;;;;5052692;28;19973;-69
2022/09/22 06:22:27;;;;;;;;;;;20.60;66.80;;;;;;5052863;28;20315;-69
2022/09/22 06:24:53;;;;;;;;;;;20.80;65.10;;;;;;5053313;28;19916;-69
2022/09/22 06:27:18;;;;;;;;;;;21.10;63.60;;;;;;5053760;28;20054;-69
2022/09/22 06:29:44;;;;;;;;;;;21.30;62.00;;;;;;5053591;28;19963;-69
2022/09/22 06:32:10;;;;;;;;;;;21.50;60.50;;;;;;5052999;28;19917;-70
2022/09/22 06:34:36;;;;;;;;;;;21.80;59.50;;;;;;5050906;28;20083;-69
2022/09/22 06:37:02;;;;;;;;;;;22.00;58.80;;;;;;5053540;28;19978;-69
2022/09/22 06:39:28;;;;;;;;;;;22.30;58.20;;;;;;5054019;28;19908;-69
2022/09/22 06:41:58;;;;;;;;;;;22.50;57.40;;;;;;5053875;28;19908;-69
2022/09/22 06:44:24;;;;;;;;;;;22.70;56.80;;;;;;5050534;28;19947;-69
2022/09/22 06:46:49;;;;;;;;;;;22.90;56.40;;;;;;5052497;28;19917;-70
2022/09/22 06:49:15;;;;;;;;;;;23.10;55.80;;;;;;5053616;28;19961;-69
2022/09/22 06:51:40;;;;;;;;;;;23.30;55.40;;;;;;5052899;28;20186;-69
2022/09/22 06:54:06;;;;;;;;;;;23.50;54.90;;;;;;5052423;28;19912;-69
2022/09/22 06:56:33;;;;;;;;;;;23.60;54.50;;;;;;5050837;28;19908;-69
2022/09/22 06:59:00;;;;;;;;;;;23.80;54.20;;;;;;5051212;28;19908;-70
2022/09/22 07:01:29;;;;;;;;;;;24.00;53.70;;;;;;5051904;28;19924;-69
2022/09/22 07:03:54;;;;;;;;;;;24.20;53.30;;;;;;5052795;28;20333;-70
2022/09/22 07:06:21;;;;;;;;;;;24.40;52.90;;;;;;5052792;28;19969;-70
2022/09/22 07:08:47;;;;;;;;;;;24.60;52.50;;;;;;5052783;28;19909;-70
2022/09/22 07:11:16;;;;;;;;;;;24.80;51.90;;;;;;5052207;28;19904;-69
2022/09/22 07:13:42;;;;;;;;;;;25.00;51.60;;;;;;5057714;28;19973;-69
2022/09/22 07:16:12;;;;;;;;;;;25.20;51.20;;;;;;5059027;28;19947;-69
2022/09/22 07:18:39;;;;;;;;;;;25.30;50.80;;;;;;5055506;28;20277;-69
2022/09/22 07:21:08;;;;;;;;;;;25.60;50.50;;;;;;5053570;28;19912;-70
2022/09/22 07:23:35;;;;;;;;;;;25.70;50.10;;;;;;5053246;28;19943;-70
2022/09/22 07:26:04;;;;;;;;;;;26.00;49.80;;;;;;5051294;28;19916;-69
2022/09/22 07:28:31;;;;;;;;;;;26.20;49.40;;;;;;5052054;28;20078;-70
2022/09/22 07:31:13;;;;;;;;;;;26.40;49.00;;;;;;5068632;28;19909;-70
2022/09/22 07:33:41;;;;;;;;;;;26.60;48.60;;;;;;5050198;28;20208;-70
2022/09/22 07:36:08;;;;;;;;;;;26.90;48.30;;;;;;5051807;28;19917;-69
2022/09/22 07:38:35;;;;;;;;;;;27.10;48.00;;;;;;5052570;28;19908;-69
2022/09/22 07:41:03;;;;;;;;;;;27.20;47.70;;;;;;5052013;28;19995;-69
2022/09/22 07:43:29;;;;;;;;;;;27.40;47.50;;;;;;5049812;28;20022;-70
2022/09/22 07:45:56;;;;;;;;;;;27.50;47.20;;;;;;5049650;28;20027;-70
2022/09/22 07:48:35;;;;;;;;;;;27.70;46.90;;;;;;5049660;28;19935;-69
2022/09/22 07:51:05;;;;;;;;;;;27.80;46.70;;;;;;5050615;28;20205;-71
2022/09/22 07:53:31;;;;;;;;;;;28.00;46.50;;;;;;5051975;28;20089;-70
2022/09/22 07:56:11;;;;;;;;;;;28.10;46.30;;;;;;5049902;28;19908;-70
2022/09/22 07:58:38;;;;;;;;;;;28.30;46.20;;;;;;5051689;28;20073;-70
2022/09/22 08:01:05;;;;;;;;;;;28.40;46.00;;;;;;5051204;28;19920;-70
2022/09/22 08:03:30;;;;;;;;;;;28.40;45.80;;;;;;5051457;28;20326;-70
2022/09/22 08:06:06;;;;;;;;;;;28.50;45.70;;;;;;5051358;28;19908;-70
2022/09/22 08:08:33;;;;;;;;;;;28.60;45.60;;;;;;5049889;28;19908;-70
2022/09/22 08:11:03;;;;;;;;;;;28.70;45.40;;;;;;5051193;28;20010;-70
2022/09/22 08:13:28;;;;;;;;;;;28.80;45.30;;;;;;5051373;28;19915;-70
2022/09/22 08:15:55;;;;;;;;;;;28.80;45.10;;;;;;5050199;28;19908;-70
2022/09/22 08:18:20;;;;;;;;;;;28.90;45.10;;;;;;5049720;28;19909;-70
2022/09/22 08:20:46;;;;;;;;;;;29.00;45.00;;;;;;5050281;28;19919;-70
2022/09/22 08:23:11;;;;;;;;;;;29.10;44.80;;;;;;5051205;28;19916;-70
2022/09/22 08:25:38;;;;;;;;;;;29.20;44.90;;;;;;5050920;28;19912;-70
2022/09/22 08:28:03;;;;;;;;;;;29.30;44.60;;;;;;5049073;28;19909;-70
2022/09/22 08:30:29;;;;;;;;;;;29.40;44.70;;;;;;5067313;28;20349;-70
2022/09/22 08:32:54;;;;;;;;;;;29.50;44.60;;;;;;5050409;28;19917;-70
2022/09/22 08:35:20;;;;;;;;;;;29.60;44.60;;;;;;5050687;28;19955;-70
2022/09/22 08:37:48;;;;;;;;;;;29.70;44.50;;;;;;5050395;28;19909;-70
2022/09/22 08:40:16;;;;;;;;;;;29.80;44.40;;;;;;5049663;28;20298;-71
2022/09/22 08:42:44;;;;;;;;;;;29.90;44.30;;;;;;5052217;28;19916;-70
2022/09/22 08:45:13;;;;;;;;;;;30.00;44.20;;;;;;5053441;28;19908;-70
2022/09/22 08:53:22;;;;;;;;;;;30.10;44.00;;;;;;5069846;28;20190;-70
2022/09/22 08:56:13;;;;;;;;;;;30.20;44.00;;;;;;5051273;28;19912;-70
2022/09/22 08:58:57;;;;;;;;;;;30.20;44.00;;;;;;5055080;28;20023;-73
2022/09/22 09:01:29;;;;;;;;;;;30.30;44.00;;;;;;5051158;28;19920;-70
2022/09/22 09:04:00;;;;;;;;;;;30.40;43.80;;;;;;5047156;28;19917;-70
2022/09/22 09:06:49;;;;;;;;;;;30.40;43.80;;;;;;5046020;28;19909;-70
2022/09/22 09:09:38;;;;;;;;;;;30.40;43.80;;;;;;5018757;28;19921;-70
2022/09/22 09:12:17;;;;;;;;;;;30.50;43.60;;;;;;5017993;28;20407;-70
2022/09/22 09:14:55;;;;;;;;;;;30.60;43.60;;;;;;5046801;28;20190;-70
2022/09/22 09:17:24;;;;;;;;;;;30.60;43.60;;;;;;5044209;28;20082;-70
2022/09/22 09:20:11;;;;;;;;;;;30.70;43.50;;;;;;5043187;28;19967;-70
2022/09/22 09:22:40;;;;;;;;;;;30.80;43.60;;;;;;5042355;28;19913;-70
2022/09/22 09:25:21;;;;;;;;;;;30.80;43.50;;;;;;5042741;28;19938;-69
2022/09/22 09:27:48;;;;;;;;;;;30.80;43.50;;;;;;5043456;28;19974;-70
2022/09/22 09:30:16;;;;;;;;;;;30.80;43.40;;;;;;5045500;28;19908;-70
2022/09/22 09:32:50;;;;;;;;;;;30.90;43.30;;;;;;5046670;28;20270;-70
2022/09/22 09:35:21;;;;;;;;;;;30.90;43.30;;;;;;5043217;28;20017;-70
2022/09/22 09:37:46;;;;;;;;;;;30.90;43.30;;;;;;5043491;28;20149;-70
2022/09/22 09:40:17;;;;;;;;;;;30.80;43.20;;;;;;5046085;28;19948;-70
2022/09/22 09:42:45;;;;;;;;;;;30.80;43.20;;;;;;5045919;28;20164;-70
2022/09/22 09:45:12;;;;;;;;;;;30.70;43.20;;;;;;5045493;28;20001;-70
2022/09/22 09:47:38;;;;;;;;;;;30.50;43.20;;;;;;5045929;28;19916;-70
2022/09/22 09:50:04;;;;;;;;;;;30.10;43.30;;;;;;5047279;28;19909;-70
2022/09/22 09:52:29;;;;;;;;;;;29.40;43.50;;;;;;5030570;28;19909;-70
2022/09/22 09:54:55;;;;;;;;;;;28.40;44.00;;;;;;5047240;28;19909;-70
2022/09/22 09:57:21;;;;;;;;;;;27.60;44.60;;;;;;5047278;28;19908;-70
2022/09/22 10:02:34;;;;;;;;;;;26.20;46.00;;;;;;5048346;28;20333;-70
2022/09/22 10:05:03;;;;;;;;;;;25.60;46.80;;;;;;5047214;28;19908;-70
2022/09/22 10:07:38;;;;;;;;;;;25.10;47.30;;;;;;5045876;28;20187;-70
2022/09/22 10:10:22;;;;;;;;;;;24.70;48.20;;;;;;5043867;28;19935;-70
2022/09/22 10:12:47;;;;;;;;;;;24.40;48.40;;;;;;5044671;28;20199;-70
2022/09/22 10:15:23;;;;;;;;;;;24.10;48.80;;;;;;5028747;28;19915;-70
2022/09/22 10:17:50;;;;;;;;;;;23.90;49.20;;;;;;5044337;28;19974;-70
2022/09/22 10:20:30;;;;;;;;;;;23.70;50.00;;;;;;5027464;28;19964;-70
2022/09/22 10:23:15;;;;;;;;;;;23.60;49.90;;;;;;5044265;28;20022;-71
2022/09/22 10:25:41;;;;;;;;;;;23.40;50.20;;;;;;5044963;28;19932;-69
2022/09/22 10:28:13;;;;;;;;;;;23.30;50.50;;;;;;5027937;28;20203;-70
2022/09/22 10:30:39;;;;;;;;;;;23.10;50.80;;;;;;5063177;28;19913;-69
2022/09/22 10:33:19;;;;;;;;;;;23.00;51.10;;;;;;5052757;28;19917;-70
2022/09/22 10:35:44;;;;;;;;;;;22.90;51.40;;;;;;5047786;28;19959;-70
2022/09/22 10:38:16;;;;;;;;;;;22.80;51.70;;;;;;5047452;28;19947;-70
2022/09/22 10:40:43;;;;;;;;;;;22.70;52.00;;;;;;5047088;28;19916;-70
2022/09/22 10:43:19;;;;;;;;;;;22.60;52.40;;;;;;5045996;28;20040;-71
2022/09/22 10:45:59;;;;;;;;;;;22.50;52.80;;;;;;5048537;28;20005;-70
2022/09/22 10:48:43;;;;;;;;;;;22.40;53.20;;;;;;5046367;28;20362;-70
2022/09/22 10:51:24;;;;;;;;;;;22.40;53.40;;;;;;5045093;28;19909;-70
2022/09/22 10:53:57;;;;;;;;;;;22.30;53.70;;;;;;5046994;28;19909;-69
2022/09/22 10:56:43;;;;;;;;;;;22.20;53.90;;;;;;5047295;28;20142;-70
2022/09/22 10:59:17;;;;;;;;;;;22.10;54.30;;;;;;5030166;28;19909;-70
2022/09/22 11:01:54;;;;;;;;;;;22.00;54.50;;;;;;5047068;28;20175;-70
2022/09/22 11:04:39;;;;;;;;;;;21.90;54.90;;;;;;5044458;28;20075;-70
2022/09/22 11:12:40;;;;;;;;;;;21.80;56.00;;;;;;5044789;28;19920;-70
2022/09/22 11:15:15;;;;;;;;;;;21.80;56.20;;;;;;5043728;28;19909;-70
2022/09/22 11:17:43;;;;;;;;;;;21.80;56.40;;;;;;5043045;28;19920;-70
2022/09/22 11:20:24;;;;;;;;;;;21.80;56.20;;;;;;5042759;28;19920;-70
2022/09/22 11:23:08;;;;;;;;;;;21.80;55.90;;;;;;5045080;28;19946;-70
2022/09/22 11:25:54;;;;;;;;;;;21.80;55.90;;;;;;5045527;28;19920;-70
2022/09/22 11:28:19;;;;;;;;;;;21.70;55.80;;;;;;5043787;28;19908;-70
2022/09/22 11:30:49;;;;;;;;;;;21.70;55.30;;;;;;5043360;28;20283;-70
2022/09/22 11:33:33;;;;;;;;;;;21.60;55.40;;;;;;5042221;28;20026;-70
2022/09/22 11:36:02;;;;;;;;;;;21.50;55.50;;;;;;5041466;28;19908;-70
2022/09/22 11:38:34;;;;;;;;;;;21.50;55.80;;;;;;5042747;28;20011;-70
2022/09/22 11:41:02;;;;;;;;;;;21.40;55.60;;;;;;5044469;28;19909;-70
2022/09/22 11:43:40;;;;;;;;;;;21.40;55.40;;;;;;5045358;28;19912;-70
2022/09/22 11:46:15;;;;;;;;;;;21.40;55.40;;;;;;5046068;28;20038;-69
2022/09/22 11:48:53;;;;;;;;;;;21.40;55.60;;;;;;5045533;28;19909;-70
2022/09/22 11:51:18;;;;;;;;;;;21.40;55.50;;;;;;5047206;28;20070;-69
2022/09/22 11:53:47;;;;;;;;;;;21.40;55.50;;;;;;5046132;28;20000;-69
2022/09/22 11:56:12;;;;;;;;;;;21.30;55.60;;;;;;5044987;28;19919;-69
2022/09/22 11:58:39;;;;;;;;;;;21.30;55.70;;;;;;5046212;28;19908;-70
2022/09/22 12:01:10;;;;;;;;;;;21.30;55.90;;;;;;5046108;28;20002;-70
2022/09/22 12:03:47;;;;;;;;;;;21.30;55.70;;;;;;5045673;28;19934;-69
2022/09/22 12:06:25;;;;;;;;;;;21.30;56.00;;;;;;5044294;28;20063;-70
2022/09/22 12:08:53;;;;;;;;;;;21.30;56.30;;;;;;5043963;28;20076;-69
2022/09/22 12:11:20;;;;;;;;;;;21.20;56.50;;;;;;5045428;28;19909;-69
2022/09/22 12:13:48;;;;;;;;;;;21.20;56.60;;;;;;5045148;28;20034;-69
2022/09/22 12:16:17;;;;;;;;;;;21.10;56.70;;;;;;5044568;28;19909;-69
2022/09/22 12:18:52;;;;;;;;;;;21.10;56.80;;;;;;5043994;28;20180;-69
2022/09/22 12:21:27;;;;;;;;;;;21.10;57.20;;;;;;5046787;28;19929;-69
2022/09/22 12:23:53;;;;;;;;;;;21.10;56.90;;;;;;5041413;28;19913;-69
2022/09/22 12:26:39;;;;;;;;;;;21.10;57.00;;;;;;5043404;28;19918;-69
2022/09/22 12:29:21;;;;;;;;;;;21.10;57.10;;;;;;5045665;28;20262;-69
2022/09/22 12:31:49;;;;;;;;;;;21.00;57.10;;;;;;5041948;28;19916;-69
2022/09/22 12:34:20;;;;;;;;;;;21.10;57.40;;;;;;5042885;28;20055;-69
2022/09/22 12:36:46;;;;;;;;;;;21.00;57.40;;;;;;5046231;28;20011;-69
2022/09/22 12:39:12;;;;;;;;;;;21.00;57.50;;;;;;5046679;28;20101;-69
2022/09/22 12:41:47;;;;;;;;;;;21.00;57.70;;;;;;5043472;28;20003;-69
2022/09/22 12:44:39;;;;;;;;;;;21.00;57.50;;;;;;5046132;28;19916;-70
2022/09/22 12:47:06;;;;;;;;;;;21.00;57.50;;;;;;4991564;28;20140;-69
2022/09/22 12:49:32;;;;;;;;;;;21.00;57.50;;;;;;5043920;28;20183;-69
2022/09/22 12:51:58;;;;;;;;;;;20.90;57.60;;;;;;5043900;28;19941;-69
2022/09/22 12:54:28;;;;;;;;;;;20.90;57.50;;;;;;5042774;28;19963;-69
2022/09/22 12:56:58;;;;;;;;;;;20.90;57.70;;;;;;5042084;28;19960;-69
2022/09/22 12:59:39;;;;;;;;;;;20.90;57.80;;;;;;5045550;28;20237;-69
2022/09/22 13:02:14;;;;;;;;;;;20.90;58.10;;;;;;5042084;28;20079;-69
2022/09/22 13:05:00;;;;;;;;;;;20.90;58.30;;;;;;5042784;28;19920;-69
2022/09/22 13:07:36;;;;;;;;;;;20.90;58.40;;;;;;4976832;28;19908;-69
2022/09/22 13:10:23;;;;;;;;;;;20.90;58.80;;;;;;5044696;28;20293;-69
2022/09/22 13:13:10;;;;;;;;;;;20.90;58.80;;;;;;5044195;28;19912;-70
2022/09/22 13:15:42;;;;;;;;;;;20.90;59.30;;;;;;5044367;28;19978;-69
2022/09/22 13:18:26;;;;;;;;;;;20.90;59.50;;;;;;5043670;28;19952;-69
2022/09/22 13:20:51;;;;;;;;;;;20.90;59.80;;;;;;5044751;28;19909;-68
2022/09/22 13:23:17;;;;;;;;;;;20.80;60.30;;;;;;5027342;28;19974;-69
2022/09/22 13:25:43;;;;;;;;;;;20.80;60.70;;;;;;5029504;28;20181;-67
2022/09/22 13:28:09;;;;;;;;;;;20.80;61.10;;;;;;5029289;28;19916;-67
2022/09/22 13:30:35;;;;;;;;;;;20.80;61.50;;;;;;5044651;28;19920;-68
2022/09/22 13:33:01;;;;;;;;;;;20.80;62.00;;;;;;5042431;28;19917;-68
2022/09/22 13:35:37;;;;;;;;;;;20.80;62.30;;;;;;5026472;28;20046;-68
2022/09/22 13:38:03;;;;;;;;;;;20.80;62.80;;;;;;5043739;28;19909;-67
2022/09/22 13:40:31;;;;;;;;;;;20.80;63.20;;;;;;5045585;28;20074;-69
2022/09/22 13:42:59;;;;;;;;;;;20.80;63.50;;;;;;5044037;28;20238;-69
2022/09/22 13:45:26;;;;;;;;;;;20.80;63.90;;;;;;5042874;28;20149;-69
2022/09/22 13:47:54;;;;;;;;;;;20.80;64.20;;;;;;5039945;28;20379;-69
2022/09/22 13:50:20;;;;;;;;;;;20.80;64.60;;;;;;5039453;28;20204;-69
2022/09/22 13:52:47;;;;;;;;;;;20.80;65.00;;;;;;5040590;28;19909;-68
2022/09/22 13:55:13;;;;;;;;;;;20.80;65.20;;;;;;5039689;28;20024;-68
2022/09/22 13:57:40;;;;;;;;;;;20.80;65.60;;;;;;5040663;28;19917;-68
2022/09/22 14:00:08;;;;;;;;;;;20.80;65.90;;;;;;5038299;28;19913;-68
2022/09/22 14:02:34;;;;;;;;;;;20.80;66.10;;;;;;5042217;28;19909;-68
2022/09/22 14:05:02;;;;;;;;;;;20.90;66.50;;;;;;5025819;28;20238;-67
2022/09/22 14:07:29;;;;;;;;;;;20.90;66.70;;;;;;5040985;28;20220;-68
2022/09/22 14:09:56;;;;;;;;;;;20.90;67.00;;;;;;5041395;28;20015;-69
2022/09/22 14:12:21;;;;;;;;;;;20.90;67.40;;;;;;5027282;28;20212;-68
2022/09/22 14:14:47;;;;;;;;;;;20.90;67.90;;;;;;5025391;28;20093;-68
2022/09/22 14:17:16;;;;;;;;;;;20.90;68.20;;;;;;5026223;28;20028;-68
2022/09/22 14:19:42;;;;;;;;;;;20.90;68.40;;;;;;5043397;28;20195;-68
2022/09/22 14:22:25;;;;;;;;;;;20.90;68.90;;;;;;5043451;28;20057;-69
2022/09/22 14:24:53;;;;;;;;;;;20.90;69.20;;;;;;5042683;28;20090;-69
2022/09/22 14:27:24;;;;;;;;;;;20.90;69.50;;;;;;5040791;28;19917;-69
2022/09/22 14:29:51;;;;;;;;;;;20.90;69.70;;;;;;5044502;28;20026;-68
2022/09/22 14:32:19;;;;;;;;;;;20.90;70.10;;;;;;5027628;28;20160;-69
2022/09/22 14:34:50;;;;;;;;;;;20.90;70.30;;;;;;5048549;28;19956;-69
2022/09/22 14:37:23;;;;;;;;;;;20.90;70.60;;;;;;5047521;28;19920;-69
2022/09/22 14:39:50;;;;;;;;;;;20.90;70.80;;;;;;5046320;28;20303;-69
2022/09/22 14:42:17;;;;;;;;;;;20.90;71.00;;;;;;5047405;28;19916;-69